sensor_id;sensor_type;location;lat;lon;timestamp;temperature;humidity
26224;DHT22;14820;48.682;8.890;2024-03-25T00:02:09;4.50;99.90
26224;DHT22;14820;48.682;8.890;2024-03-25T00:04:35;4.50;99.90
26224;DHT22;14820;48.682;8.890;2024-03-25T00:07:01;4.50;99.90
26224;DHT22;14820;48.682;8.890;2024-03-25T00:09:28;4.50;99.90
26224;DHT22;14820;48.682;8.890;2024-03-25T00:11:53;4.50;99.90
26224;DHT22;14820;48.682;8.890;2024-03-25T00:14:23;4.50;99.90
26224;DHT22;14820;48.682;8.890;2024-03-25T00:16:49;4.50;99.90
26224;DHT22;14820;48.682;8.890;2024-03-25T00:19:15;4.60;99.90
26224;DHT22;14820;48.682;8.890;2024-03-25T00:21:40;4.50;99.90
26224;DHT22;14820;48.682;8.890;2024-03-25T00:24:07;4.50;99.90
26224;DHT22;14820;48.682;8.890;2024-03-25T00:26:33;4.50;99.90
26224;DHT22;14820;48.682;8.890;2024-03-25T00:28:59;4.50;99.90
26224;DHT22;14820;48.682;8.890;2024-03-25T00:31:25;4.50;99.90
26224;DHT22;14820;48.682;8.890;2024-03-25T00:33:50;4.50;99.90
26224;DHT22;14820;48.682;8.890;2024-03-25T00:36:16;4.50;99.90
26224;DHT22;14820;48.682;8.890;2024-03-25T00:38:43;4.50;99.90
26224;DHT22;14820;48.682;8.890;2024-03-25T00:41:09;4.50;99.90
26224;DHT22;14820;48.682;8.890;2024-03-25T00:43:34;4.50;99.90
26224;DHT22;14820;48.682;8.890;2024-03-25T00:46:00;4.50;99.90
26224;DHT22;14820;48.682;8.890;2024-03-25T00:48:26;4.50;99.90
26224;DHT22;14820;48.682;8.890;2024-03-25T00:50:52;4.50;99.90
26224;DHT22;14820;48.682;8.890;2024-03-25T00:53:18;4.40;99.90
26224;DHT22;14820;48.682;8.890;2024-03-25T00:55:44;4.40;99.90
26224;DHT22;14820;48.682;8.890;2024-03-25T00:58:09;4.50;99.90
26224;DHT22;14820;48.682;8.890;2024-03-25T01:00:35;4.40;99.90
26224;DHT22;14820;48.682;8.890;2024-03-25T01:03:01;4.40;99.90
26224;DHT22;14820;48.682;8.890;2024-03-25T01:05:27;4.40;99.90
26224;DHT22;14820;48.682;8.890;2024-03-25T01:07:53;4.40;99.90
26224;DHT22;14820;48.682;8.890;2024-03-25T01:10:18;4.40;99.90
26224;DHT22;14820;48.682;8.890;2024-03-25T01:12:44;4.40;99.90
26224;DHT22;14820;48.682;8.890;2024-03-25T01:15:11;4.40;99.90
26224;DHT22;14820;48.682;8.890;2024-03-25T01:17:37;4.40;99.90
26224;DHT22;14820;48.682;8.890;2024-03-25T01:20:03;4.40;99.90
26224;DHT22;14820;48.682;8.890;2024-03-25T01:22:31;4.40;99.90
26224;DHT22;14820;48.682;8.890;2024-03-25T01:24:57;4.40;99.90
26224;DHT22;14820;48.682;8.890;2024-03-25T01:27:23;4.40;99.90
26224;DHT22;14820;48.682;8.890;2024-03-25T01:29:49;4.40;99.90
26224;DHT22;14820;48.682;8.890;2024-03-25T01:32:14;4.40;99.90
26224;DHT22;14820;48.682;8.890;2024-03-25T01:34:40;4.40;99.90
26224;DHT22;14820;48.682;8.890;2024-03-25T01:37:06;4.40;99.90
26224;DHT22;14820;48.682;8.890;2024-03-25T01:39:32;4.30;99.90
26224;DHT22;14820;48.682;8.890;2024-03-25T01:41:58;4.30;99.90
26224;DHT22;14820;48.682;8.890;2024-03-25T01:44:24;4.30;99.90
26224;DHT22;14820;48.682;8.890;2024-03-25T01:46:50;4.30;99.90
26224;DHT22;14820;48.682;8.890;2024-03-25T01:49:18;4.30;99.90
26224;DHT22;14820;48.682;8.890;2024-03-25T01:51:44;4.30;99.90
26224;DHT22;14820;48.682;8.890;2024-03-25T01:54:10;4.30;99.90
26224;DHT22;14820;48.682;8.890;2024-03-25T01:56:39;4.30;99.90
26224;DHT22;14820;48.682;8.890;2024-03-25T01:59:07;4.30;99.90
26224;DHT22;14820;48.682;8.890;2024-03-25T02:01:32;4.30;99.90
26224;DHT22;14820;48.682;8.890;2024-03-25T02:03:58;4.30;99.90
26224;DHT22;14820;48.682;8.890;2024-03-25T02:06:27;4.30;99.90
26224;DHT22;14820;48.682;8.890;2024-03-25T02:08:55;4.30;99.90
26224;DHT22;14820;48.682;8.890;2024-03-25T02:11:22;4.30;99.90
26224;DHT22;14820;48.682;8.890;2024-03-25T02:13:52;4.30;99.90
26224;DHT22;14820;48.682;8.890;2024-03-25T02:16:18;4.40;99.90
26224;DHT22;14820;48.682;8.890;2024-03-25T02:18:44;4.30;99.90
26224;DHT22;14820;48.682;8.890;2024-03-25T02:21:10;4.30;99.90
26224;DHT22;14820;48.682;8.890;2024-03-25T02:23:38;4.30;99.90
26224;DHT22;14820;48.682;8.890;2024-03-25T02:26:04;4.40;99.90
26224;DHT22;14820;48.682;8.890;2024-03-25T02:28:30;4.40;99.90
26224;DHT22;14820;48.682;8.890;2024-03-25T02:30:55;4.40;99.90
26224;DHT22;14820;48.682;8.890;2024-03-25T02:33:21;4.40;99.90
26224;DHT22;14820;48.682;8.890;2024-03-25T02:35:46;4.40;99.90
26224;DHT22;14820;48.682;8.890;2024-03-25T02:38:12;4.40;99.90
26224;DHT22;14820;48.682;8.890;2024-03-25T02:40:39;4.40;99.90
26224;DHT22;14820;48.682;8.890;2024-03-25T02:43:06;4.40;99.90
26224;DHT22;14820;48.682;8.890;2024-03-25T02:45:33;4.30;99.90
26224;DHT22;14820;48.682;8.890;2024-03-25T02:47:58;4.30;99.90
26224;DHT22;14820;48.682;8.890;2024-03-25T02:50:24;4.30;99.90
26224;DHT22;14820;48.682;8.890;2024-03-25T02:52:50;4.20;99.90
26224;DHT22;14820;48.682;8.890;2024-03-25T02:55:15;4.20;99.90
26224;DHT22;14820;48.682;8.890;2024-03-25T02:57:41;4.20;99.90
26224;DHT22;14820;48.682;8.890;2024-03-25T03:00:07;4.20;99.90
26224;DHT22;14820;48.682;8.890;2024-03-25T03:02:34;4.20;99.90
26224;DHT22;14820;48.682;8.890;2024-03-25T03:05:00;4.20;99.90
26224;DHT22;14820;48.682;8.890;2024-03-25T03:07:26;4.30;99.90
26224;DHT22;14820;48.682;8.890;2024-03-25T03:09:52;4.20;99.90
26224;DHT22;14820;48.682;8.890;2024-03-25T03:12:17;4.20;99.90
26224;DHT22;14820;48.682;8.890;2024-03-25T03:14:43;4.20;99.90
26224;DHT22;14820;48.682;8.890;2024-03-25T03:17:09;4.20;99.90
26224;DHT22;14820;48.682;8.890;2024-03-25T03:19:34;4.20;99.90
26224;DHT22;14820;48.682;8.890;2024-03-25T03:22:00;4.20;99.90
26224;DHT22;14820;48.682;8.890;2024-03-25T03:24:25;4.30;99.90
26224;DHT22;14820;48.682;8.890;2024-03-25T03:26:51;4.30;99.90
26224;DHT22;14820;48.682;8.890;2024-03-25T03:29:17;4.20;99.90
26224;DHT22;14820;48.682;8.890;2024-03-25T03:31:44;4.30;99.90
26224;DHT22;14820;48.682;8.890;2024-03-25T03:34:09;4.30;99.90
26224;DHT22;14820;48.682;8.890;2024-03-25T03:36:35;4.30;99.90
26224;DHT22;14820;48.682;8.890;2024-03-25T03:39:01;4.30;99.90
26224;DHT22;14820;48.682;8.890;2024-03-25T03:41:26;4.30;99.90
26224;DHT22;14820;48.682;8.890;2024-03-25T03:43:52;4.30;99.90
26224;DHT22;14820;48.682;8.890;2024-03-25T03:46:17;4.30;99.90
26224;DHT22;14820;48.682;8.890;2024-03-25T03:48:43;4.30;99.90
26224;DHT22;14820;48.682;8.890;2024-03-25T03:51:09;4.30;99.90
26224;DHT22;14820;48.682;8.890;2024-03-25T03:53:35;4.30;99.90
26224;DHT22;14820;48.682;8.890;2024-03-25T03:56:04;4.30;99.90
26224;DHT22;14820;48.682;8.890;2024-03-25T03:58:33;4.30;99.90
26224;DHT22;14820;48.682;8.890;2024-03-25T04:01:00;4.30;99.90
26224;DHT22;14820;48.682;8.890;2024-03-25T04:03:26;4.30;99.90
26224;DHT22;14820;48.682;8.890;2024-03-25T04:05:52;4.30;99.90
26224;DHT22;14820;48.682;8.890;2024-03-25T04:08:17;4.30;99.90
26224;DHT22;14820;48.682;8.890;2024-03-25T04:10:44;4.30;99.90
26224;DHT22;14820;48.682;8.890;2024-03-25T04:13:10;4.30;99.90
26224;DHT22;14820;48.682;8.890;2024-03-25T04:15:43;4.30;99.90
26224;DHT22;14820;48.682;8.890;2024-03-25T04:18:08;4.30;99.90
26224;DHT22;14820;48.682;8.890;2024-03-25T04:20:41;4.30;99.90
26224;DHT22;14820;48.682;8.890;2024-03-25T04:23:07;4.30;99.90
26224;DHT22;14820;48.682;8.890;2024-03-25T04:25:34;4.30;99.90
26224;DHT22;14820;48.682;8.890;2024-03-25T04:28:00;4.30;99.90
26224;DHT22;14820;48.682;8.890;2024-03-25T04:30:26;4.30;99.90
26224;DHT22;14820;48.682;8.890;2024-03-25T04:32:51;4.30;99.90
26224;DHT22;14820;48.682;8.890;2024-03-25T04:35:17;4.30;99.90
26224;DHT22;14820;48.682;8.890;2024-03-25T04:37:43;4.30;99.90
26224;DHT22;14820;48.682;8.890;2024-03-25T04:40:09;4.30;99.90
26224;DHT22;14820;48.682;8.890;2024-03-25T04:42:35;4.20;99.90
26224;DHT22;14820;48.682;8.890;2024-03-25T04:45:02;4.20;99.90
26224;DHT22;14820;48.682;8.890;2024-03-25T04:47:27;4.10;99.90
26224;DHT22;14820;48.682;8.890;2024-03-25T04:49:53;4.10;99.90
26224;DHT22;14820;48.682;8.890;2024-03-25T04:52:19;4.10;99.90
26224;DHT22;14820;48.682;8.890;2024-03-25T04:54:48;4.10;99.90
26224;DHT22;14820;48.682;8.890;2024-03-25T04:57:14;4.10;99.90
26224;DHT22;14820;48.682;8.890;2024-03-25T04:59:40;4.10;99.90
26224;DHT22;14820;48.682;8.890;2024-03-25T05:02:05;4.00;99.90
26224;DHT22;14820;48.682;8.890;2024-03-25T05:04:31;4.00;99.90
26224;DHT22;14820;48.682;8.890;2024-03-25T05:06:57;4.00;99.90
26224;DHT22;14820;48.682;8.890;2024-03-25T05:09:23;4.00;99.90
26224;DHT22;14820;48.682;8.890;2024-03-25T05:11:48;4.00;99.90
26224;DHT22;14820;48.682;8.890;2024-03-25T05:14:14;3.90;99.90
26224;DHT22;14820;48.682;8.890;2024-03-25T05:16:40;3.80;99.90
26224;DHT22;14820;48.682;8.890;2024-03-25T05:19:06;3.80;99.90
26224;DHT22;14820;48.682;8.890;2024-03-25T05:21:32;3.80;99.90
26224;DHT22;14820;48.682;8.890;2024-03-25T05:23:58;3.80;99.90
26224;DHT22;14820;48.682;8.890;2024-03-25T05:26:23;3.70;99.90
26224;DHT22;14820;48.682;8.890;2024-03-25T05:28:53;3.70;99.90
26224;DHT22;14820;48.682;8.890;2024-03-25T05:31:19;3.70;99.90
26224;DHT22;14820;48.682;8.890;2024-03-25T05:33:45;3.80;99.90
26224;DHT22;14820;48.682;8.890;2024-03-25T05:36:11;3.80;99.90
26224;DHT22;14820;48.682;8.890;2024-03-25T05:38:36;3.80;99.90
26224;DHT22;14820;48.682;8.890;2024-03-25T05:41:02;3.80;99.90
26224;DHT22;14820;48.682;8.890;2024-03-25T05:43:28;3.80;99.90
26224;DHT22;14820;48.682;8.890;2024-03-25T05:45:54;3.80;99.90
26224;DHT22;14820;48.682;8.890;2024-03-25T05:48:24;3.80;99.90
26224;DHT22;14820;48.682;8.890;2024-03-25T05:51:01;3.80;99.90
26224;DHT22;14820;48.682;8.890;2024-03-25T05:53:28;3.80;99.90
26224;DHT22;14820;48.682;8.890;2024-03-25T05:55:54;3.90;99.90
26224;DHT22;14820;48.682;8.890;2024-03-25T05:58:20;3.90;99.90
26224;DHT22;14820;48.682;8.890;2024-03-25T06:00:49;4.00;99.90
26224;DHT22;14820;48.682;8.890;2024-03-25T06:03:16;3.90;99.90
26224;DHT22;14820;48.682;8.890;2024-03-25T06:05:42;4.00;99.90
26224;DHT22;14820;48.682;8.890;2024-03-25T06:08:08;3.90;99.90
26224;DHT22;14820;48.682;8.890;2024-03-25T06:10:41;4.00;99.90
26224;DHT22;14820;48.682;8.890;2024-03-25T06:13:07;4.00;99.90
26224;DHT22;14820;48.682;8.890;2024-03-25T06:15:32;4.00;99.90
26224;DHT22;14820;48.682;8.890;2024-03-25T06:17:58;4.00;99.90
26224;DHT22;14820;48.682;8.890;2024-03-25T06:20:24;4.00;99.90
26224;DHT22;14820;48.682;8.890;2024-03-25T06:22:50;4.00;99.90
26224;DHT22;14820;48.682;8.890;2024-03-25T06:25:16;4.00;99.90
26224;DHT22;14820;48.682;8.890;2024-03-25T06:27:43;4.00;99.90
26224;DHT22;14820;48.682;8.890;2024-03-25T06:30:10;4.00;99.90
26224;DHT22;14820;48.682;8.890;2024-03-25T06:32:55;4.00;99.90
26224;DHT22;14820;48.682;8.890;2024-03-25T06:35:39;4.00;99.90
26224;DHT22;14820;48.682;8.890;2024-03-25T06:38:05;4.00;99.90
26224;DHT22;14820;48.682;8.890;2024-03-25T06:40:31;4.00;99.90
26224;DHT22;14820;48.682;8.890;2024-03-25T06:42:57;4.00;99.90
26224;DHT22;14820;48.682;8.890;2024-03-25T06:45:23;4.10;99.90
26224;DHT22;14820;48.682;8.890;2024-03-25T06:47:48;4.10;99.90
26224;DHT22;14820;48.682;8.890;2024-03-25T06:50:14;4.10;99.90
26224;DHT22;14820;48.682;8.890;2024-03-25T06:52:40;4.10;99.90
26224;DHT22;14820;48.682;8.890;2024-03-25T06:55:06;4.20;99.90
26224;DHT22;14820;48.682;8.890;2024-03-25T06:57:32;4.20;99.90
26224;DHT22;14820;48.682;8.890;2024-03-25T06:59:58;4.20;99.90
26224;DHT22;14820;48.682;8.890;2024-03-25T07:02:24;4.30;99.90
26224;DHT22;14820;48.682;8.890;2024-03-25T07:04:49;4.30;99.90
26224;DHT22;14820;48.682;8.890;2024-03-25T07:07:15;4.40;99.90
26224;DHT22;14820;48.682;8.890;2024-03-25T07:09:41;4.40;99.90
26224;DHT22;14820;48.682;8.890;2024-03-25T07:12:07;4.50;99.90
26224;DHT22;14820;48.682;8.890;2024-03-25T07:14:33;4.50;99.90
26224;DHT22;14820;48.682;8.890;2024-03-25T07:16:59;4.50;99.90
26224;DHT22;14820;48.682;8.890;2024-03-25T07:19:24;4.60;99.90
26224;DHT22;14820;48.682;8.890;2024-03-25T07:21:50;4.60;99.90
26224;DHT22;14820;48.682;8.890;2024-03-25T07:24:16;4.70;99.90
26224;DHT22;14820;48.682;8.890;2024-03-25T07:26:41;4.70;99.90
26224;DHT22;14820;48.682;8.890;2024-03-25T07:29:07;4.80;99.90
26224;DHT22;14820;48.682;8.890;2024-03-25T07:31:33;4.90;99.90
26224;DHT22;14820;48.682;8.890;2024-03-25T07:33:58;5.00;99.90
26224;DHT22;14820;48.682;8.890;2024-03-25T07:36:24;5.10;99.90
26224;DHT22;14820;48.682;8.890;2024-03-25T07:38:49;5.20;99.90
26224;DHT22;14820;48.682;8.890;2024-03-25T07:41:15;5.30;99.90
26224;DHT22;14820;48.682;8.890;2024-03-25T07:43:41;5.40;99.90
26224;DHT22;14820;48.682;8.890;2024-03-25T07:46:07;5.40;99.90
26224;DHT22;14820;48.682;8.890;2024-03-25T07:48:32;5.50;99.90
26224;DHT22;14820;48.682;8.890;2024-03-25T07:50:58;5.60;99.90
26224;DHT22;14820;48.682;8.890;2024-03-25T07:53:24;5.70;99.90
26224;DHT22;14820;48.682;8.890;2024-03-25T07:55:49;5.70;99.90
26224;DHT22;14820;48.682;8.890;2024-03-25T07:58:16;5.80;99.90
26224;DHT22;14820;48.682;8.890;2024-03-25T08:00:42;5.80;99.90
26224;DHT22;14820;48.682;8.890;2024-03-25T08:03:08;5.90;99.90
26224;DHT22;14820;48.682;8.890;2024-03-25T08:05:33;6.00;99.90
26224;DHT22;14820;48.682;8.890;2024-03-25T08:07:59;6.00;99.90
26224;DHT22;14820;48.682;8.890;2024-03-25T08:10:25;6.20;99.90
26224;DHT22;14820;48.682;8.890;2024-03-25T08:12:51;6.30;99.90
26224;DHT22;14820;48.682;8.890;2024-03-25T08:15:16;6.40;99.90
26224;DHT22;14820;48.682;8.890;2024-03-25T08:17:42;6.50;99.90
26224;DHT22;14820;48.682;8.890;2024-03-25T08:20:08;6.50;99.90
26224;DHT22;14820;48.682;8.890;2024-03-25T08:22:34;6.50;99.90
26224;DHT22;14820;48.682;8.890;2024-03-25T08:25:00;6.60;99.90
26224;DHT22;14820;48.682;8.890;2024-03-25T08:27:25;6.70;99.90
26224;DHT22;14820;48.682;8.890;2024-03-25T08:29:51;6.70;99.90
26224;DHT22;14820;48.682;8.890;2024-03-25T08:32:19;6.80;99.90
26224;DHT22;14820;48.682;8.890;2024-03-25T08:34:45;6.90;99.90
26224;DHT22;14820;48.682;8.890;2024-03-25T08:37:11;7.00;99.90
26224;DHT22;14820;48.682;8.890;2024-03-25T08:39:36;7.00;99.90
26224;DHT22;14820;48.682;8.890;2024-03-25T08:42:02;7.10;99.90
26224;DHT22;14820;48.682;8.890;2024-03-25T08:44:28;7.10;99.90
26224;DHT22;14820;48.682;8.890;2024-03-25T08:46:54;7.10;99.90
26224;DHT22;14820;48.682;8.890;2024-03-25T08:49:19;7.20;99.90
26224;DHT22;14820;48.682;8.890;2024-03-25T08:51:45;7.20;99.90
26224;DHT22;14820;48.682;8.890;2024-03-25T08:54:11;7.20;99.90
26224;DHT22;14820;48.682;8.890;2024-03-25T08:56:37;7.30;99.90
26224;DHT22;14820;48.682;8.890;2024-03-25T08:59:03;7.40;99.90
26224;DHT22;14820;48.682;8.890;2024-03-25T09:01:29;7.40;99.90
26224;DHT22;14820;48.682;8.890;2024-03-25T09:03:56;7.40;99.90
26224;DHT22;14820;48.682;8.890;2024-03-25T09:06:22;7.40;99.90
26224;DHT22;14820;48.682;8.890;2024-03-25T09:08:47;7.40;99.90
26224;DHT22;14820;48.682;8.890;2024-03-25T09:11:31;7.30;99.90
26224;DHT22;14820;48.682;8.890;2024-03-25T09:13:57;7.30;99.90
26224;DHT22;14820;48.682;8.890;2024-03-25T09:16:23;7.30;99.90
26224;DHT22;14820;48.682;8.890;2024-03-25T09:18:49;7.30;99.90
26224;DHT22;14820;48.682;8.890;2024-03-25T09:21:14;7.30;99.90
26224;DHT22;14820;48.682;8.890;2024-03-25T09:23:40;7.40;99.90
26224;DHT22;14820;48.682;8.890;2024-03-25T09:26:06;7.50;99.90
26224;DHT22;14820;48.682;8.890;2024-03-25T09:28:31;7.50;99.90
26224;DHT22;14820;48.682;8.890;2024-03-25T09:30:57;7.40;99.90
26224;DHT22;14820;48.682;8.890;2024-03-25T09:33:22;7.40;99.90
26224;DHT22;14820;48.682;8.890;2024-03-25T09:35:49;7.40;99.90
26224;DHT22;14820;48.682;8.890;2024-03-25T09:38:15;7.40;99.90
26224;DHT22;14820;48.682;8.890;2024-03-25T09:40:41;7.30;99.90
26224;DHT22;14820;48.682;8.890;2024-03-25T09:43:21;7.30;99.90
26224;DHT22;14820;48.682;8.890;2024-03-25T09:45:49;7.30;99.90
26224;DHT22;14820;48.682;8.890;2024-03-25T09:48:16;7.30;99.90
26224;DHT22;14820;48.682;8.890;2024-03-25T09:50:44;7.30;99.90
26224;DHT22;14820;48.682;8.890;2024-03-25T09:53:10;7.40;99.90
26224;DHT22;14820;48.682;8.890;2024-03-25T09:55:36;7.40;99.90
26224;DHT22;14820;48.682;8.890;2024-03-25T09:58:03;7.40;99.90
26224;DHT22;14820;48.682;8.890;2024-03-25T10:00:29;7.40;99.90
26224;DHT22;14820;48.682;8.890;2024-03-25T10:02:55;7.30;99.90
26224;DHT22;14820;48.682;8.890;2024-03-25T10:05:21;7.40;99.90
26224;DHT22;14820;48.682;8.890;2024-03-25T10:07:47;7.40;99.90
26224;DHT22;14820;48.682;8.890;2024-03-25T10:10:13;7.40;99.90
26224;DHT22;14820;48.682;8.890;2024-03-25T10:12:39;7.50;99.90
26224;DHT22;14820;48.682;8.890;2024-03-25T10:15:06;7.50;99.90
26224;DHT22;14820;48.682;8.890;2024-03-25T10:17:32;7.60;99.90
26224;DHT22;14820;48.682;8.890;2024-03-25T10:19:58;7.70;99.90
26224;DHT22;14820;48.682;8.890;2024-03-25T10:22:23;7.70;99.90
26224;DHT22;14820;48.682;8.890;2024-03-25T10:24:50;7.80;99.90
26224;DHT22;14820;48.682;8.890;2024-03-25T10:27:23;7.90;99.90
26224;DHT22;14820;48.682;8.890;2024-03-25T10:29:52;7.90;99.90
26224;DHT22;14820;48.682;8.890;2024-03-25T10:32:18;8.00;99.90
26224;DHT22;14820;48.682;8.890;2024-03-25T10:34:44;8.00;99.90
26224;DHT22;14820;48.682;8.890;2024-03-25T10:37:11;8.00;99.90
26224;DHT22;14820;48.682;8.890;2024-03-25T10:39:50;7.90;99.90
26224;DHT22;14820;48.682;8.890;2024-03-25T10:42:19;8.00;99.90
26224;DHT22;14820;48.682;8.890;2024-03-25T10:44:47;8.10;99.90
26224;DHT22;14820;48.682;8.890;2024-03-25T10:47:34;8.10;99.90
26224;DHT22;14820;48.682;8.890;2024-03-25T10:50:04;8.20;99.90
26224;DHT22;14820;48.682;8.890;2024-03-25T10:52:36;8.20;99.90
26224;DHT22;14820;48.682;8.890;2024-03-25T10:55:03;8.20;99.90
26224;DHT22;14820;48.682;8.890;2024-03-25T10:57:29;8.30;99.90
26224;DHT22;14820;48.682;8.890;2024-03-25T10:59:56;8.50;99.90
26224;DHT22;14820;48.682;8.890;2024-03-25T11:02:23;8.70;99.90
26224;DHT22;14820;48.682;8.890;2024-03-25T11:04:49;9.00;99.90
26224;DHT22;14820;48.682;8.890;2024-03-25T11:07:17;9.20;99.90
26224;DHT22;14820;48.682;8.890;2024-03-25T11:09:43;9.30;99.90
26224;DHT22;14820;48.682;8.890;2024-03-25T11:12:12;9.40;99.90
26224;DHT22;14820;48.682;8.890;2024-03-25T11:14:39;9.60;99.90
26224;DHT22;14820;48.682;8.890;2024-03-25T11:17:15;9.70;99.90
26224;DHT22;14820;48.682;8.890;2024-03-25T11:19:44;9.90;99.90
26224;DHT22;14820;48.682;8.890;2024-03-25T11:22:10;10.00;99.90
26224;DHT22;14820;48.682;8.890;2024-03-25T11:24:37;10.10;99.90
26224;DHT22;14820;48.682;8.890;2024-03-25T11:27:06;10.20;99.90
26224;DHT22;14820;48.682;8.890;2024-03-25T11:29:33;10.40;99.90
26224;DHT22;14820;48.682;8.890;2024-03-25T11:32:03;10.50;99.90
26224;DHT22;14820;48.682;8.890;2024-03-25T11:34:29;10.60;99.90
26224;DHT22;14820;48.682;8.890;2024-03-25T11:36:59;10.70;99.90
26224;DHT22;14820;48.682;8.890;2024-03-25T11:39:24;10.70;99.90
26224;DHT22;14820;48.682;8.890;2024-03-25T11:41:54;10.80;99.90
26224;DHT22;14820;48.682;8.890;2024-03-25T11:44:20;10.90;99.90
26224;DHT22;14820;48.682;8.890;2024-03-25T11:46:50;10.90;99.90
26224;DHT22;14820;48.682;8.890;2024-03-25T11:49:16;10.90;99.90
26224;DHT22;14820;48.682;8.890;2024-03-25T11:51:45;11.00;99.90
26224;DHT22;14820;48.682;8.890;2024-03-25T11:54:12;11.10;99.90
26224;DHT22;14820;48.682;8.890;2024-03-25T11:56:38;11.10;99.90
26224;DHT22;14820;48.682;8.890;2024-03-25T11:59:04;11.10;99.90
26224;DHT22;14820;48.682;8.890;2024-03-25T12:01:31;11.10;99.90
26224;DHT22;14820;48.682;8.890;2024-03-25T12:03:57;11.10;99.90
26224;DHT22;14820;48.682;8.890;2024-03-25T12:06:23;11.10;99.90
26224;DHT22;14820;48.682;8.890;2024-03-25T12:08:48;11.20;99.90
26224;DHT22;14820;48.682;8.890;2024-03-25T12:11:33;11.30;99.90
26224;DHT22;14820;48.682;8.890;2024-03-25T12:13:59;11.40;99.90
26224;DHT22;14820;48.682;8.890;2024-03-25T12:16:26;11.50;99.90
26224;DHT22;14820;48.682;8.890;2024-03-25T12:18:52;11.60;99.90
26224;DHT22;14820;48.682;8.890;2024-03-25T12:21:20;11.70;99.90
26224;DHT22;14820;48.682;8.890;2024-03-25T12:23:47;11.70;99.90
26224;DHT22;14820;48.682;8.890;2024-03-25T12:26:14;11.70;99.90
26224;DHT22;14820;48.682;8.890;2024-03-25T12:28:40;11.80;99.90
26224;DHT22;14820;48.682;8.890;2024-03-25T12:31:08;11.90;99.90
26224;DHT22;14820;48.682;8.890;2024-03-25T12:33:46;11.90;99.90
26224;DHT22;14820;48.682;8.890;2024-03-25T12:36:13;12.00;99.90
26224;DHT22;14820;48.682;8.890;2024-03-25T12:38:39;11.90;99.90
26224;DHT22;14820;48.682;8.890;2024-03-25T12:41:08;11.80;99.90
26224;DHT22;14820;48.682;8.890;2024-03-25T12:43:36;11.80;99.90
26224;DHT22;14820;48.682;8.890;2024-03-25T12:46:02;11.80;99.90
26224;DHT22;14820;48.682;8.890;2024-03-25T12:48:31;11.80;99.90
26224;DHT22;14820;48.682;8.890;2024-03-25T12:50:56;11.90;99.90
26224;DHT22;14820;48.682;8.890;2024-03-25T12:53:22;11.90;99.90
26224;DHT22;14820;48.682;8.890;2024-03-25T12:55:49;11.90;99.90
26224;DHT22;14820;48.682;8.890;2024-03-25T12:58:15;12.00;99.90
26224;DHT22;14820;48.682;8.890;2024-03-25T13:00:42;12.00;99.90
26224;DHT22;14820;48.682;8.890;2024-03-25T13:05:43;12.10;99.90
26224;DHT22;14820;48.682;8.890;2024-03-25T13:08:09;12.10;99.90
26224;DHT22;14820;48.682;8.890;2024-03-25T13:10:35;12.20;99.90
26224;DHT22;14820;48.682;8.890;2024-03-25T13:13:01;12.20;99.90
26224;DHT22;14820;48.682;8.890;2024-03-25T13:15:27;12.20;99.90
26224;DHT22;14820;48.682;8.890;2024-03-25T13:17:53;12.20;99.90
26224;DHT22;14820;48.682;8.890;2024-03-25T13:20:19;12.20;99.90
26224;DHT22;14820;48.682;8.890;2024-03-25T13:22:45;12.20;99.80
26224;DHT22;14820;48.682;8.890;2024-03-25T13:25:12;12.30;99.90
26224;DHT22;14820;48.682;8.890;2024-03-25T13:27:38;12.30;99.90
26224;DHT22;14820;48.682;8.890;2024-03-25T13:30:05;12.40;99.90
26224;DHT22;14820;48.682;8.890;2024-03-25T13:32:31;12.50;99.90
26224;DHT22;14820;48.682;8.890;2024-03-25T13:34:56;12.60;99.90
26224;DHT22;14820;48.682;8.890;2024-03-25T13:37:22;12.60;99.90
26224;DHT22;14820;48.682;8.890;2024-03-25T13:39:47;12.60;99.90
26224;DHT22;14820;48.682;8.890;2024-03-25T13:42:15;12.70;99.90
26224;DHT22;14820;48.682;8.890;2024-03-25T13:44:41;12.80;99.90
26224;DHT22;14820;48.682;8.890;2024-03-25T13:47:06;12.90;99.90
26224;DHT22;14820;48.682;8.890;2024-03-25T13:49:34;12.80;98.30
26224;DHT22;14820;48.682;8.890;2024-03-25T13:52:00;12.70;96.90
26224;DHT22;14820;48.682;8.890;2024-03-25T13:54:28;12.60;97.30
26224;DHT22;14820;48.682;8.890;2024-03-25T13:56:56;12.50;96.50
26224;DHT22;14820;48.682;8.890;2024-03-25T13:59:21;12.60;97.90
26224;DHT22;14820;48.682;8.890;2024-03-25T14:01:47;12.70;98.00
26224;DHT22;14820;48.682;8.890;2024-03-25T14:04:12;12.70;98.00
26224;DHT22;14820;48.682;8.890;2024-03-25T14:06:39;12.80;97.70
26224;DHT22;14820;48.682;8.890;2024-03-25T14:09:06;12.80;97.20
26224;DHT22;14820;48.682;8.890;2024-03-25T14:11:34;12.90;97.30
26224;DHT22;14820;48.682;8.890;2024-03-25T14:14:00;13.00;98.20
26224;DHT22;14820;48.682;8.890;2024-03-25T14:16:26;13.00;96.90
26224;DHT22;14820;48.682;8.890;2024-03-25T14:18:51;13.00;95.40
26224;DHT22;14820;48.682;8.890;2024-03-25T14:21:17;13.00;95.60
26224;DHT22;14820;48.682;8.890;2024-03-25T14:23:42;12.90;95.20
26224;DHT22;14820;48.682;8.890;2024-03-25T14:26:15;13.00;96.10
26224;DHT22;14820;48.682;8.890;2024-03-25T14:28:41;13.00;96.00
26224;DHT22;14820;48.682;8.890;2024-03-25T14:31:06;13.00;96.40
26224;DHT22;14820;48.682;8.890;2024-03-25T14:33:32;13.10;96.90
26224;DHT22;14820;48.682;8.890;2024-03-25T14:35:57;13.10;97.50
26224;DHT22;14820;48.682;8.890;2024-03-25T14:38:23;13.10;98.10
26224;DHT22;14820;48.682;8.890;2024-03-25T14:40:49;13.20;97.60
26224;DHT22;14820;48.682;8.890;2024-03-25T14:43:14;13.20;97.70
26224;DHT22;14820;48.682;8.890;2024-03-25T14:45:44;13.20;98.10
26224;DHT22;14820;48.682;8.890;2024-03-25T14:48:10;13.30;98.40
26224;DHT22;14820;48.682;8.890;2024-03-25T14:50:36;13.30;97.90
26224;DHT22;14820;48.682;8.890;2024-03-25T14:53:02;13.30;96.40
26224;DHT22;14820;48.682;8.890;2024-03-25T14:55:29;13.30;95.40
26224;DHT22;14820;48.682;8.890;2024-03-25T14:57:54;13.20;96.60
26224;DHT22;14820;48.682;8.890;2024-03-25T15:00:20;13.30;96.80
26224;DHT22;14820;48.682;8.890;2024-03-25T15:02:46;13.20;96.00
26224;DHT22;14820;48.682;8.890;2024-03-25T15:05:12;13.30;95.80
26224;DHT22;14820;48.682;8.890;2024-03-25T15:07:38;13.20;95.80
26224;DHT22;14820;48.682;8.890;2024-03-25T15:10:03;13.30;97.00
26224;DHT22;14820;48.682;8.890;2024-03-25T15:12:29;13.30;97.60
26224;DHT22;14820;48.682;8.890;2024-03-25T15:14:55;13.30;97.70
26224;DHT22;14820;48.682;8.890;2024-03-25T15:17:21;13.30;96.40
26224;DHT22;14820;48.682;8.890;2024-03-25T15:19:46;13.30;96.30
26224;DHT22;14820;48.682;8.890;2024-03-25T15:22:12;13.30;97.30
26224;DHT22;14820;48.682;8.890;2024-03-25T15:24:37;13.30;97.20
26224;DHT22;14820;48.682;8.890;2024-03-25T15:27:03;13.40;97.60
26224;DHT22;14820;48.682;8.890;2024-03-25T15:29:29;13.40;97.90
26224;DHT22;14820;48.682;8.890;2024-03-25T15:31:54;13.50;98.70
26224;DHT22;14820;48.682;8.890;2024-03-25T15:34:20;13.60;98.80
26224;DHT22;14820;48.682;8.890;2024-03-25T15:36:47;13.60;97.70
26224;DHT22;14820;48.682;8.890;2024-03-25T15:39:15;13.60;97.10
26224;DHT22;14820;48.682;8.890;2024-03-25T15:41:40;13.60;96.90